createdAt,value
2019-06-27T00:01:18.506Z,22.84
2019-06-27T00:03:48.516Z,22.63
2019-06-27T00:06:18.591Z,22.63
2019-06-27T00:08:48.595Z,22.46
2019-06-27T00:11:18.668Z,22.08
2019-06-27T00:13:48.676Z,22.72
2019-06-27T00:16:18.654Z,21.97
2019-06-27T00:18:48.681Z,22.45
2019-06-27T00:21:18.765Z,22.38
2019-06-27T00:23:48.837Z,22.40
2019-06-27T00:26:18.898Z,21.99
2019-06-27T00:28:48.901Z,22.28
2019-06-27T00:31:18.878Z,22.41
2019-06-27T00:33:48.931Z,22.73
2019-06-27T00:36:18.941Z,22.57
2019-06-27T00:38:48.941Z,22.34
2019-06-27T00:41:18.915Z,22.45
2019-06-27T00:43:48.935Z,22.37
2019-06-27T00:46:18.933Z,21.99
2019-06-27T00:48:48.970Z,22.24
2019-06-27T00:51:18.981Z,22.13
2019-06-27T00:53:49.001Z,21.85
2019-06-27T00:56:19.016Z,22.02
2019-06-27T00:58:49.020Z,22.06
2019-06-27T01:01:19.107Z,21.74
2019-06-27T01:03:49.102Z,22.22
2019-06-27T01:06:19.131Z,21.86
2019-06-27T01:08:49.115Z,21.94
2019-06-27T01:11:19.133Z,21.63
2019-06-27T01:13:49.114Z,21.02
2019-06-27T01:16:19.180Z,21.67
2019-06-27T01:18:49.159Z,22.00
2019-06-27T01:21:19.194Z,21.65
2019-06-27T01:23:49.197Z,21.70
2019-06-27T01:26:19.214Z,21.75
2019-06-27T01:28:49.216Z,21.48
2019-06-27T01:31:19.313Z,21.78
2019-06-27T01:33:49.312Z,21.93
2019-06-27T01:36:19.449Z,21.57
2019-06-27T01:38:49.546Z,21.69
2019-06-27T01:41:19.664Z,21.74
2019-06-27T01:43:52.417Z,21.70
2019-06-27T01:46:21.424Z,21.46
2019-06-27T01:48:51.708Z,21.21
2019-06-27T01:51:21.725Z,21.16
2019-06-27T01:53:51.725Z,21.12
2019-06-27T01:56:21.752Z,21.27
2019-06-27T01:58:51.827Z,21.23
2019-06-27T02:01:21.990Z,21.60
2019-06-27T02:03:52.125Z,21.19
2019-06-27T02:06:22.186Z,21.18
2019-06-27T02:08:52.464Z,20.75
2019-06-27T02:11:22.544Z,20.89
2019-06-27T02:13:52.604Z,20.78
2019-06-27T02:16:22.816Z,20.34
2019-06-27T02:18:52.818Z,20.03
2019-06-27T02:21:22.840Z,20.59
2019-06-27T02:23:52.866Z,20.57
2019-06-27T02:26:22.952Z,20.56
2019-06-27T02:28:52.945Z,20.65
2019-06-27T02:31:23.025Z,20.75
2019-06-27T02:33:53.008Z,20.75
2019-06-27T02:36:23.254Z,20.79
2019-06-27T02:38:53.396Z,20.73
2019-06-27T02:41:23.416Z,20.57
2019-06-27T02:43:53.441Z,20.64
2019-06-27T02:46:23.434Z,20.25
2019-06-27T02:48:53.442Z,19.85
2019-06-27T02:51:23.427Z,20.07
2019-06-27T02:53:53.434Z,20.40
2019-06-27T02:56:23.465Z,20.17
2019-06-27T02:58:53.463Z,19.79
2019-06-27T03:01:23.529Z,19.66
2019-06-27T03:03:53.540Z,19.82
2019-06-27T03:06:23.598Z,20.02
2019-06-27T03:08:53.589Z,19.51
2019-06-27T03:11:23.615Z,19.89
2019-06-27T03:13:53.663Z,20.07
2019-06-27T03:16:23.658Z,20.33
2019-06-27T03:18:53.681Z,20.06
2019-06-27T03:21:23.709Z,19.49
2019-06-27T03:23:53.709Z,19.75
2019-06-27T03:26:23.777Z,19.69
2019-06-27T03:28:54.261Z,19.95
2019-06-27T03:31:24.361Z,19.55
2019-06-27T03:33:54.385Z,19.88
2019-06-27T03:36:24.418Z,19.45
2019-06-27T03:38:54.434Z,19.66
2019-06-27T03:41:24.459Z,19.82
2019-06-27T03:43:54.489Z,19.98
2019-06-27T03:46:24.594Z,19.82
2019-06-27T03:48:54.597Z,19.26
2019-06-27T03:51:24.574Z,19.98
2019-06-27T03:53:54.567Z,19.91
2019-06-27T03:56:24.566Z,20.01
2019-06-27T03:59:11.703Z,19.79
2019-06-27T04:01:26.326Z,19.84
2019-06-27T04:03:56.337Z,19.97
2019-06-27T04:06:26.314Z,19.99
2019-06-27T04:08:56.346Z,19.71
2019-06-27T04:11:26.354Z,19.69
2019-06-27T04:13:56.368Z,19.86
2019-06-27T04:16:26.365Z,19.82
2019-06-27T04:18:56.377Z,19.71
2019-06-27T04:21:26.360Z,19.63
2019-06-27T04:23:56.369Z,19.43
2019-06-27T04:26:26.380Z,19.72
2019-06-27T04:28:56.397Z,19.49
2019-06-27T04:31:26.381Z,19.26
2019-06-27T04:33:56.430Z,19.84
2019-06-27T04:36:26.400Z,19.91
2019-06-27T04:38:56.428Z,19.50
2019-06-27T04:41:26.414Z,19.79
2019-06-27T04:43:56.414Z,19.88
2019-06-27T04:46:26.427Z,19.74
2019-06-27T04:48:56.452Z,20.00
2019-06-27T04:51:26.451Z,19.76
2019-06-27T04:53:56.474Z,19.74
2019-06-27T04:56:26.487Z,19.55
2019-06-27T04:58:56.501Z,19.78
2019-06-27T05:01:26.519Z,19.65
2019-06-27T05:03:56.539Z,19.68
2019-06-27T05:06:26.576Z,19.72
2019-06-27T05:08:56.621Z,19.71
2019-06-27T05:11:26.601Z,19.46
2019-06-27T05:13:56.623Z,19.36
2019-06-27T05:16:26.584Z,19.41
2019-06-27T05:18:56.573Z,19.83
2019-06-27T05:21:26.559Z,19.70
2019-06-27T05:23:56.663Z,19.47
2019-06-27T05:26:26.667Z,19.70
2019-06-27T05:28:56.707Z,19.52
2019-06-27T05:31:26.687Z,19.74
2019-06-27T05:33:56.691Z,19.68
2019-06-27T05:36:26.678Z,19.51
2019-06-27T05:38:56.694Z,19.63
2019-06-27T05:41:26.697Z,19.76
2019-06-27T05:43:56.721Z,19.89
2019-06-27T05:46:26.677Z,19.88
2019-06-27T05:48:56.707Z,19.71
2019-06-27T05:51:26.735Z,19.64
2019-06-27T05:53:56.715Z,19.66
2019-06-27T05:56:26.700Z,19.73
2019-06-27T05:58:56.694Z,19.90
2019-06-27T06:01:26.701Z,19.57
2019-06-27T06:03:56.688Z,19.70
2019-06-27T06:06:26.697Z,19.92
2019-06-27T06:08:56.704Z,19.70
2019-06-27T06:11:26.721Z,19.60
2019-06-27T06:13:56.717Z,19.76
2019-06-27T06:16:26.727Z,19.73
2019-06-27T06:18:56.689Z,19.86
2019-06-27T06:21:26.783Z,19.84
2019-06-27T06:23:56.769Z,19.79
2019-06-27T06:26:26.768Z,19.97
2019-06-27T06:28:56.768Z,20.03
2019-06-27T06:31:26.785Z,20.46
2019-06-27T06:33:56.780Z,20.03
2019-06-27T06:36:26.815Z,19.74
2019-06-27T06:38:56.795Z,19.96
2019-06-27T06:41:26.803Z,20.12
2019-06-27T06:43:56.797Z,20.00
2019-06-27T06:46:26.837Z,20.24
2019-06-27T06:48:56.794Z,20.17
2019-06-27T06:51:26.827Z,20.35
2019-06-27T06:53:56.828Z,20.38
2019-06-27T06:56:26.830Z,20.27
2019-06-27T06:58:56.838Z,20.27
2019-06-27T07:01:26.912Z,20.06
2019-06-27T07:03:56.956Z,19.93
2019-06-27T07:06:27.100Z,20.16
2019-06-27T07:08:57.140Z,20.19
2019-06-27T07:11:27.188Z,20.42
2019-06-27T07:13:57.182Z,20.13
2019-06-27T07:16:27.376Z,20.38
2019-06-27T07:18:57.402Z,20.34
2019-06-27T07:21:27.474Z,20.43
2019-06-27T07:23:57.490Z,20.26
2019-06-27T07:26:27.538Z,20.20
2019-06-27T07:28:57.545Z,20.23
2019-06-27T07:31:27.643Z,20.50
2019-06-27T07:33:57.632Z,20.42
2019-06-27T07:36:27.660Z,20.39
2019-06-27T07:38:57.663Z,20.48
2019-06-27T07:41:27.677Z,20.63
2019-06-27T07:43:57.716Z,20.80
2019-06-27T07:46:27.762Z,20.72
2019-06-27T07:48:57.757Z,20.58
2019-06-27T07:51:27.848Z,20.79
2019-06-27T07:53:57.847Z,20.74
2019-06-27T07:56:27.882Z,20.53
2019-06-27T07:58:57.934Z,20.67
2019-06-27T08:01:34.891Z,20.85
2019-06-27T08:03:59.703Z,20.85
2019-06-27T08:06:29.725Z,20.84
2019-06-27T08:08:59.780Z,20.96
2019-06-27T08:11:29.762Z,20.70
2019-06-27T08:13:59.811Z,21.13
2019-06-27T08:16:29.814Z,21.14
2019-06-27T08:18:59.851Z,21.30
2019-06-27T08:21:29.908Z,21.30
2019-06-27T08:23:59.940Z,21.02
2019-06-27T08:26:29.975Z,20.83
2019-06-27T08:29:00.016Z,20.98
2019-06-27T08:31:30.001Z,20.93
2019-06-27T08:34:00.077Z,20.71
2019-06-27T08:36:30.049Z,20.58
2019-06-27T08:39:00.241Z,20.71
2019-06-27T08:41:30.265Z,20.80
2019-06-27T08:44:00.379Z,20.70
2019-06-27T08:46:30.472Z,20.67
2019-06-27T08:49:00.577Z,20.59
2019-06-27T08:51:30.671Z,20.70
2019-06-27T08:54:00.779Z,20.85
2019-06-27T08:56:31.297Z,20.91
2019-06-27T08:59:01.329Z,20.93
2019-06-27T09:01:31.449Z,21.07
2019-06-27T09:04:01.986Z,21.19
2019-06-27T09:06:31.995Z,21.08
2019-06-27T09:09:02.043Z,21.22
2019-06-27T09:11:35.542Z,21.22
2019-06-27T09:14:03.946Z,21.19
2019-06-27T09:16:33.929Z,21.25
2019-06-27T09:19:03.963Z,21.36
2019-06-27T09:21:34.021Z,21.42
2019-06-27T09:24:04.110Z,21.43
2019-06-27T09:26:34.097Z,21.59
2019-06-27T09:29:04.139Z,21.78
2019-06-27T09:31:34.210Z,21.62
2019-06-27T09:34:04.329Z,21.70
2019-06-27T09:36:34.324Z,21.71
2019-06-27T09:39:05.197Z,21.81
2019-06-27T09:41:35.185Z,21.61
2019-06-27T09:44:05.297Z,21.61
2019-06-27T09:46:35.324Z,21.72
2019-06-27T09:49:05.330Z,21.90
2019-06-27T09:51:35.341Z,21.74
2019-06-27T09:54:05.418Z,21.68
2019-06-27T09:56:35.415Z,21.39
2019-06-27T09:59:05.389Z,21.65
2019-06-27T10:01:35.433Z,21.84
2019-06-27T10:04:05.497Z,21.39
2019-06-27T10:06:35.526Z,21.54
2019-06-27T10:09:06.500Z,21.51
2019-06-27T10:11:36.540Z,21.79
2019-06-27T10:14:06.543Z,21.90
2019-06-27T10:16:36.621Z,21.74
2019-06-27T10:19:06.629Z,21.44
2019-06-27T10:21:36.701Z,21.59
2019-06-27T10:24:06.752Z,21.81
2019-06-27T10:26:36.744Z,21.51
2019-06-27T10:29:06.841Z,21.83
2019-06-27T10:31:36.883Z,21.62
2019-06-27T10:34:06.868Z,21.70
2019-06-27T10:36:38.517Z,21.80
2019-06-27T10:39:08.585Z,21.31
2019-06-27T10:41:38.638Z,21.24
2019-06-27T10:44:08.616Z,21.58
2019-06-27T10:46:38.670Z,21.67
2019-06-27T10:49:08.688Z,21.47
2019-06-27T10:51:38.778Z,21.53
2019-06-27T10:54:08.994Z,21.28
2019-06-27T10:56:40.110Z,21.41
2019-06-27T10:59:10.367Z,21.42
2019-06-27T11:01:40.356Z,21.50
2019-06-27T11:04:10.420Z,21.39
2019-06-27T11:06:40.404Z,21.30
2019-06-27T11:09:10.430Z,21.50
2019-06-27T11:11:40.506Z,21.46
2019-06-27T11:14:10.552Z,21.31
2019-06-27T11:16:40.607Z,21.37
2019-06-27T11:19:10.624Z,21.21
2019-06-27T11:21:40.646Z,21.46
2019-06-27T11:24:10.626Z,21.62
2019-06-27T11:26:40.696Z,21.34
2019-06-27T11:29:10.726Z,21.70
2019-06-27T11:31:40.905Z,21.78
2019-06-27T11:34:10.998Z,21.55
2019-06-27T11:36:41.993Z,21.56
2019-06-27T11:39:12.051Z,21.78
2019-06-27T11:41:42.137Z,21.75
2019-06-27T11:44:12.292Z,21.65
2019-06-27T11:46:42.318Z,21.39
2019-06-27T11:49:12.520Z,21.51
2019-06-27T11:51:42.666Z,21.42
2019-06-27T11:54:12.782Z,21.54
2019-06-27T11:56:42.978Z,21.70
2019-06-27T11:59:13.139Z,21.65
2019-06-27T12:01:43.800Z,21.42
2019-06-27T12:04:13.932Z,21.53
2019-06-27T12:06:44.090Z,21.37
2019-06-27T12:09:14.221Z,21.43
2019-06-27T12:11:44.353Z,21.43
2019-06-27T12:14:14.469Z,21.65
2019-06-27T12:16:44.475Z,21.90
2019-06-27T12:19:14.563Z,21.99
2019-06-27T12:21:44.570Z,21.94
2019-06-27T12:24:14.639Z,21.89
2019-06-27T12:26:44.710Z,21.84
2019-06-27T12:29:14.811Z,21.91
2019-06-27T12:31:44.853Z,21.86
2019-06-27T12:34:14.946Z,21.91
2019-06-27T12:36:44.948Z,22.03
2019-06-27T12:39:15.034Z,21.79
2019-06-27T12:41:45.099Z,21.83
2019-06-27T12:44:15.185Z,21.89
2019-06-27T12:46:45.224Z,21.80
2019-06-27T12:49:15.307Z,21.72
2019-06-27T12:51:45.349Z,21.75
2019-06-27T12:54:15.469Z,21.78
2019-06-27T12:56:45.495Z,22.03
2019-06-27T12:59:15.745Z,22.07
2019-06-27T13:01:45.780Z,22.11
2019-06-27T13:04:23.425Z,21.98
2019-06-27T13:06:47.662Z,22.18
2019-06-27T13:09:17.715Z,21.91
2019-06-27T13:11:47.688Z,21.84
2019-06-27T13:14:17.833Z,21.95
2019-06-27T13:16:47.830Z,21.74
2019-06-27T13:19:17.950Z,21.93
2019-06-27T13:21:48.015Z,21.96
2019-06-27T13:24:18.045Z,21.94
2019-06-27T13:26:48.094Z,21.90
2019-06-27T13:31:46.933Z,21.81
2019-06-27T13:34:17.002Z,21.77
2019-06-27T13:36:47.261Z,21.84
2019-06-27T13:39:17.249Z,21.76
2019-06-27T13:41:47.288Z,21.71
2019-06-27T13:44:17.272Z,22.04
2019-06-27T13:46:47.356Z,22.15
2019-06-27T13:49:17.378Z,22.29
2019-06-27T13:51:47.447Z,22.22
2019-06-27T13:54:17.482Z,22.47
2019-06-27T13:56:47.521Z,22.48
2019-06-27T13:59:17.527Z,22.18
2019-06-27T14:01:47.578Z,21.98
2019-06-27T14:04:17.765Z,21.95
2019-06-27T14:06:47.923Z,21.98
2019-06-27T14:09:23.513Z,21.88
2019-06-27T14:11:49.664Z,21.82
2019-06-27T14:14:19.706Z,22.01
2019-06-27T14:16:49.737Z,22.28
2019-06-27T14:19:19.785Z,22.06
2019-06-27T14:21:50.432Z,22.00
2019-06-27T14:24:20.451Z,22.03
2019-06-27T14:26:50.518Z,22.20
2019-06-27T14:29:20.556Z,21.95
2019-06-27T14:31:50.585Z,22.01
2019-06-27T14:34:20.666Z,22.03
2019-06-27T14:36:54.219Z,21.88
2019-06-27T14:39:22.520Z,21.95
2019-06-27T14:41:52.635Z,21.98
2019-06-27T14:44:22.701Z,21.92
2019-06-27T14:46:52.745Z,21.96
2019-06-27T14:49:22.851Z,22.03
2019-06-27T14:51:52.982Z,21.87
2019-06-27T14:54:23.537Z,21.80
2019-06-27T14:56:53.661Z,21.65
2019-06-27T14:59:23.690Z,21.72
2019-06-27T15:01:53.816Z,21.78
2019-06-27T15:04:23.896Z,21.52
2019-06-27T15:06:53.895Z,21.52
2019-06-27T15:09:23.943Z,21.47
2019-06-27T15:11:54.031Z,21.54
2019-06-27T15:14:24.534Z,21.69
2019-06-27T15:16:54.515Z,21.88
2019-06-27T15:19:24.568Z,21.69
2019-06-27T15:21:54.574Z,21.87
2019-06-27T15:24:24.712Z,21.97
2019-06-27T15:26:54.691Z,21.91
2019-06-27T15:29:24.743Z,21.84
2019-06-27T15:31:54.827Z,21.42
2019-06-27T15:34:24.874Z,21.43
2019-06-27T15:36:54.918Z,21.69
2019-06-27T15:39:24.914Z,21.54
2019-06-27T15:41:54.935Z,21.63
2019-06-27T15:44:25.045Z,21.63
2019-06-27T15:46:55.091Z,21.42
2019-06-27T15:49:25.212Z,21.30
2019-06-27T15:51:55.324Z,21.14
2019-06-27T15:54:25.366Z,21.26
2019-06-27T15:56:55.544Z,21.40
2019-06-27T15:59:25.618Z,21.26
2019-06-27T16:01:56.369Z,21.06
2019-06-27T16:04:32.771Z,20.97
2019-06-27T16:06:58.188Z,21.26
2019-06-27T16:09:28.323Z,21.25
2019-06-27T16:11:58.420Z,21.06
2019-06-27T16:14:28.552Z,20.87
2019-06-27T16:16:58.750Z,21.00
2019-06-27T16:19:28.773Z,21.07
2019-06-27T16:21:58.777Z,21.02
2019-06-27T16:24:28.812Z,20.85
2019-06-27T16:26:58.838Z,21.21
2019-06-27T16:29:28.863Z,21.12
2019-06-27T16:31:58.895Z,21.05
2019-06-27T16:34:29.284Z,21.27
2019-06-27T16:36:59.404Z,20.91
2019-06-27T16:39:29.481Z,21.14
2019-06-27T16:41:59.483Z,20.99
2019-06-27T16:44:29.530Z,20.83
2019-06-27T16:46:59.566Z,20.90
2019-06-27T16:49:29.690Z,21.17
2019-06-27T16:51:59.739Z,21.02
2019-06-27T16:54:29.797Z,21.28
2019-06-27T16:56:59.807Z,21.00
2019-06-27T16:59:29.948Z,21.06
2019-06-27T17:01:59.970Z,20.71
2019-06-27T17:04:30.041Z,20.91
2019-06-27T17:07:00.062Z,20.82
2019-06-27T17:09:30.171Z,20.79
2019-06-27T17:12:00.196Z,20.64
2019-06-27T17:14:30.235Z,20.81
2019-06-27T17:17:00.273Z,20.84
2019-06-27T17:19:30.310Z,21.04
2019-06-27T17:22:00.446Z,20.89
2019-06-27T17:24:30.454Z,20.99
2019-06-27T17:27:00.467Z,20.74
2019-06-27T17:29:30.461Z,21.03
2019-06-27T17:32:00.519Z,21.01
2019-06-27T17:34:30.505Z,20.61
2019-06-27T17:37:00.560Z,20.52
2019-06-27T17:39:30.668Z,20.83
2019-06-27T17:42:00.721Z,20.81
2019-06-27T17:44:30.831Z,20.72
2019-06-27T17:47:02.325Z,20.57
2019-06-27T17:49:32.402Z,20.86
2019-06-27T17:52:02.435Z,20.94
2019-06-27T17:54:32.454Z,20.83
2019-06-27T17:57:02.615Z,20.69
2019-06-27T17:59:32.749Z,20.68
2019-06-27T18:02:02.865Z,20.65
2019-06-27T18:04:33.006Z,20.65
2019-06-27T18:07:13.760Z,20.61
2019-06-27T18:09:37.228Z,20.47
2019-06-27T18:12:07.371Z,20.54
2019-06-27T18:14:37.577Z,20.57
2019-06-27T18:17:07.865Z,20.46
2019-06-27T18:19:39.081Z,20.44
2019-06-27T18:22:09.243Z,20.77
2019-06-27T18:24:41.650Z,20.52
2019-06-27T18:27:11.102Z,20.77
2019-06-27T18:29:41.175Z,20.63
2019-06-27T18:32:11.253Z,20.40
2019-06-27T18:34:41.318Z,20.55
2019-06-27T18:37:11.850Z,20.62
2019-06-27T18:39:41.909Z,20.57
2019-06-27T18:42:11.963Z,20.62
2019-06-27T18:44:42.102Z,20.46
2019-06-27T18:47:12.204Z,20.41
2019-06-27T18:49:42.249Z,20.41
2019-06-27T18:52:12.294Z,20.37
2019-06-27T18:54:42.392Z,20.42
2019-06-27T18:57:13.612Z,20.47
2019-06-27T18:59:43.658Z,20.44
2019-06-27T19:02:13.702Z,20.14
2019-06-27T19:04:43.750Z,20.60
2019-06-27T19:07:13.854Z,20.57
2019-06-27T19:09:43.906Z,20.87
2019-06-27T19:12:14.734Z,20.28
2019-06-27T19:14:44.711Z,20.14
2019-06-27T19:17:14.856Z,20.63
2019-06-27T19:19:47.659Z,20.25
2019-06-27T19:22:35.263Z,20.32
2019-06-27T19:25:09.968Z,20.09
2019-06-27T19:27:40.021Z,20.29
2019-06-27T19:30:10.023Z,19.99
2019-06-27T19:32:40.181Z,20.28
2019-06-27T19:35:10.293Z,20.44
2019-06-27T19:37:40.293Z,20.10
2019-06-27T19:40:10.452Z,20.50
2019-06-27T19:42:40.550Z,20.51
2019-06-27T19:45:10.723Z,20.13
2019-06-27T19:47:40.834Z,20.26
2019-06-27T19:50:11.677Z,20.14
2019-06-27T19:52:41.748Z,20.25
2019-06-27T19:55:11.926Z,20.06
2019-06-27T19:57:41.986Z,19.91
2019-06-27T20:00:12.579Z,20.01
2019-06-27T20:02:42.630Z,19.85
2019-06-27T20:05:12.868Z,20.05
2019-06-27T20:07:42.903Z,19.94
2019-06-27T20:10:14.030Z,20.22
2019-06-27T20:12:44.044Z,20.19
2019-06-27T20:15:14.119Z,20.26
2019-06-27T20:17:44.116Z,20.14
2019-06-27T20:20:14.242Z,20.08
2019-06-27T20:22:44.242Z,19.97
2019-06-27T20:25:14.373Z,19.77
2019-06-27T20:27:44.405Z,20.04
2019-06-27T20:30:14.586Z,19.99
2019-06-27T20:32:44.690Z,19.88
2019-06-27T20:35:14.936Z,20.09
2019-06-27T20:37:45.244Z,20.08
2019-06-27T20:40:15.942Z,20.16
2019-06-27T20:42:46.000Z,20.50
2019-06-27T20:45:16.047Z,20.22
2019-06-27T20:47:46.058Z,19.72
2019-06-27T20:50:16.336Z,20.08
2019-06-27T20:52:46.372Z,19.60
2019-06-27T20:55:16.506Z,19.83
2019-06-27T20:57:46.515Z,19.75
2019-06-27T21:00:16.935Z,20.22
2019-06-27T21:02:47.120Z,19.73
2019-06-27T21:05:17.169Z,20.09
2019-06-27T21:07:47.205Z,20.01
2019-06-27T21:10:18.414Z,20.11
2019-06-27T21:12:48.461Z,19.87
2019-06-27T21:15:18.536Z,19.99
2019-06-27T21:17:48.560Z,19.59
2019-06-27T21:20:18.643Z,19.75
2019-06-27T21:22:48.652Z,19.97
2019-06-27T21:25:19.049Z,19.53
2019-06-27T21:27:49.132Z,19.54
2019-06-27T21:30:19.314Z,19.76
2019-06-27T21:32:49.296Z,20.08
2019-06-27T21:35:19.466Z,19.68
2019-06-27T21:37:49.451Z,19.86
2019-06-27T21:40:20.034Z,19.84
2019-06-27T21:42:50.160Z,19.37
2019-06-27T21:45:20.403Z,19.48
2019-06-27T21:47:50.518Z,19.91
2019-06-27T21:50:20.760Z,19.87
2019-06-27T21:52:50.800Z,19.99
2019-06-27T21:55:21.162Z,19.89
2019-06-27T21:57:51.276Z,20.03
2019-06-27T22:00:22.747Z,20.27
2019-06-27T22:02:52.880Z,19.86
2019-06-27T22:05:23.091Z,19.64
2019-06-27T22:07:53.697Z,20.01
2019-06-27T22:10:24.100Z,19.83
2019-06-27T22:12:54.153Z,20.00
2019-06-27T22:15:24.190Z,19.81
2019-06-27T22:17:54.196Z,19.91
2019-06-27T22:20:24.349Z,20.25
2019-06-27T22:22:54.538Z,20.12
2019-06-27T22:25:39.358Z,20.03
2019-06-27T22:27:56.462Z,20.15
2019-06-27T22:30:26.922Z,19.63
2019-06-27T22:32:57.092Z,20.14
2019-06-27T22:35:27.106Z,20.21
2019-06-27T22:38:15.202Z,20.32
2019-06-27T22:41:03.057Z,20.01
2019-06-27T22:43:50.729Z,20.42
2019-06-27T22:46:38.773Z,20.47
2019-06-27T22:49:08.424Z,20.13
2019-06-27T22:52:07.247Z,19.90
2019-06-27T22:54:38.311Z,20.04
2019-06-27T22:57:08.369Z,20.25
2019-06-27T22:59:38.485Z,20.01
2019-06-27T23:02:08.615Z,20.07
2019-06-27T23:04:38.772Z,20.30
2019-06-27T23:07:08.761Z,20.11
2019-06-27T23:09:38.804Z,20.16
2019-06-27T23:12:08.849Z,20.31
2019-06-27T23:14:38.872Z,20.20
2019-06-27T23:17:08.893Z,20.14
2019-06-27T23:19:38.853Z,20.16
2019-06-27T23:22:08.875Z,20.10
2019-06-27T23:24:38.871Z,19.65
2019-06-27T23:27:08.931Z,19.46
2019-06-27T23:29:38.977Z,19.74
2019-06-27T23:32:09.165Z,19.90
2019-06-27T23:34:39.194Z,19.75
2019-06-27T23:37:09.226Z,19.49
2019-06-27T23:39:39.234Z,19.71
2019-06-27T23:42:09.395Z,19.74
2019-06-27T23:44:39.368Z,19.25
2019-06-27T23:47:09.376Z,19.32
2019-06-27T23:49:39.514Z,19.31
2019-06-27T23:52:09.492Z,19.15
2019-06-27T23:54:39.500Z,19.13
2019-06-27T23:57:09.601Z,19.45
2019-06-27T23:59:39.635Z,19.24
